sensor_id;sensor_type;location;lat;lon;timestamp;P1;durP1;ratioP1;P2;durP2;ratioP2
17496;SDS011;62150;43.582;1.456;2023-04-24T05:26:49;4.33;;;1.90;;
17496;SDS011;62150;43.582;1.456;2023-04-24T05:29:17;7.30;;;2.37;;
17496;SDS011;62150;43.582;1.456;2023-04-24T05:31:45;5.60;;;2.20;;
17496;SDS011;62150;43.582;1.456;2023-04-24T05:34:12;5.97;;;2.10;;
17496;SDS011;62150;43.582;1.456;2023-04-24T05:36:41;7.07;;;2.17;;
17496;SDS011;62150;43.582;1.456;2023-04-24T05:39:09;6.33;;;2.10;;
17496;SDS011;62150;43.582;1.456;2023-04-24T05:41:37;5.57;;;1.93;;
17496;SDS011;62150;43.582;1.456;2023-04-24T05:44:06;3.80;;;2.00;;
17496;SDS011;62150;43.582;1.456;2023-04-24T05:46:33;5.50;;;2.07;;
17496;SDS011;62150;43.582;1.456;2023-04-24T05:49:01;7.17;;;2.17;;
17496;SDS011;62150;43.582;1.456;2023-04-24T05:51:29;5.20;;;2.13;;
17496;SDS011;62150;43.582;1.456;2023-04-24T05:53:56;3.90;;;1.93;;
17496;SDS011;62150;43.582;1.456;2023-04-24T05:56:24;5.10;;;2.03;;
17496;SDS011;62150;43.582;1.456;2023-04-24T05:58:51;6.83;;;2.10;;
17496;SDS011;62150;43.582;1.456;2023-04-24T06:01:20;6.70;;;2.10;;
17496;SDS011;62150;43.582;1.456;2023-04-24T06:03:48;3.93;;;2.10;;
17496;SDS011;62150;43.582;1.456;2023-04-24T06:06:15;5.17;;;2.20;;
17496;SDS011;62150;43.582;1.456;2023-04-24T06:08:44;6.17;;;2.27;;
17496;SDS011;62150;43.582;1.456;2023-04-24T06:11:11;6.27;;;2.33;;
17496;SDS011;62150;43.582;1.456;2023-04-24T06:13:39;5.47;;;2.00;;
17496;SDS011;62150;43.582;1.456;2023-04-24T06:16:06;7.30;;;2.20;;
17496;SDS011;62150;43.582;1.456;2023-04-24T06:18:35;5.43;;;2.13;;
17496;SDS011;62150;43.582;1.456;2023-04-24T06:21:03;7.13;;;2.20;;
17496;SDS011;62150;43.582;1.456;2023-04-24T06:23:31;5.30;;;2.03;;
17496;SDS011;62150;43.582;1.456;2023-04-24T06:25:58;6.70;;;2.27;;
17496;SDS011;62150;43.582;1.456;2023-04-24T06:28:26;6.17;;;2.10;;
17496;SDS011;62150;43.582;1.456;2023-04-24T06:30:55;6.13;;;2.30;;
17496;SDS011;62150;43.582;1.456;2023-04-24T06:33:22;6.90;;;2.47;;
17496;SDS011;62150;43.582;1.456;2023-04-24T06:35:51;5.57;;;2.10;;
17496;SDS011;62150;43.582;1.456;2023-04-24T06:38:18;8.03;;;2.40;;
17496;SDS011;62150;43.582;1.456;2023-04-24T06:40:46;5.33;;;2.17;;
17496;SDS011;62150;43.582;1.456;2023-04-24T06:43:13;7.67;;;2.40;;
17496;SDS011;62150;43.582;1.456;2023-04-24T06:45:41;6.37;;;2.37;;
17496;SDS011;62150;43.582;1.456;2023-04-24T06:48:10;7.83;;;2.20;;
17496;SDS011;62150;43.582;1.456;2023-04-24T06:50:37;5.87;;;2.37;;
17496;SDS011;62150;43.582;1.456;2023-04-24T06:53:06;5.40;;;2.10;;
17496;SDS011;62150;43.582;1.456;2023-04-24T06:55:36;7.93;;;2.50;;
17496;SDS011;62150;43.582;1.456;2023-04-24T06:58:03;12.23;;;2.40;;
17496;SDS011;62150;43.582;1.456;2023-04-24T07:00:31;6.17;;;2.40;;
17496;SDS011;62150;43.582;1.456;2023-04-24T07:02:58;7.00;;;2.33;;
17496;SDS011;62150;43.582;1.456;2023-04-24T07:05:26;5.87;;;2.20;;
17496;SDS011;62150;43.582;1.456;2023-04-24T07:07:54;7.27;;;2.40;;
17496;SDS011;62150;43.582;1.456;2023-04-24T07:10:24;9.30;;;2.60;;
17496;SDS011;62150;43.582;1.456;2023-04-24T07:12:53;6.80;;;2.30;;
17496;SDS011;62150;43.582;1.456;2023-04-24T07:15:21;8.33;;;2.30;;
17496;SDS011;62150;43.582;1.456;2023-04-24T07:17:48;5.43;;;2.30;;
17496;SDS011;62150;43.582;1.456;2023-04-24T07:20:16;6.13;;;2.50;;
17496;SDS011;62150;43.582;1.456;2023-04-24T07:22:44;6.10;;;2.20;;
17496;SDS011;62150;43.582;1.456;2023-04-24T07:25:13;6.83;;;2.20;;
17496;SDS011;62150;43.582;1.456;2023-04-24T07:27:42;6.53;;;2.27;;
17496;SDS011;62150;43.582;1.456;2023-04-24T07:30:10;5.07;;;2.17;;
17496;SDS011;62150;43.582;1.456;2023-04-24T07:32:38;6.23;;;2.17;;
17496;SDS011;62150;43.582;1.456;2023-04-24T07:35:05;5.60;;;2.30;;
17496;SDS011;62150;43.582;1.456;2023-04-24T07:37:34;4.07;;;1.97;;
17496;SDS011;62150;43.582;1.456;2023-04-24T07:40:02;5.57;;;1.90;;
17496;SDS011;62150;43.582;1.456;2023-04-24T07:42:30;4.93;;;1.80;;
17496;SDS011;62150;43.582;1.456;2023-04-24T07:45:01;4.17;;;1.77;;
17496;SDS011;62150;43.582;1.456;2023-04-24T07:47:28;4.30;;;1.80;;
17496;SDS011;62150;43.582;1.456;2023-04-24T07:49:56;3.63;;;1.60;;
17496;SDS011;62150;43.582;1.456;2023-04-24T07:52:24;2.90;;;1.77;;
17496;SDS011;62150;43.582;1.456;2023-04-24T07:54:51;3.43;;;1.67;;
17496;SDS011;62150;43.582;1.456;2023-04-24T07:57:23;3.50;;;1.70;;
17496;SDS011;62150;43.582;1.456;2023-04-24T07:59:51;3.00;;;1.50;;
17496;SDS011;62150;43.582;1.456;2023-04-24T08:02:20;5.67;;;1.77;;
17496;SDS011;62150;43.582;1.456;2023-04-24T08:04:51;4.03;;;1.70;;
17496;SDS011;62150;43.582;1.456;2023-04-24T08:07:19;4.57;;;1.87;;
17496;SDS011;62150;43.582;1.456;2023-04-24T08:09:47;4.77;;;1.70;;
17496;SDS011;62150;43.582;1.456;2023-04-24T08:12:15;2.33;;;1.50;;
17496;SDS011;62150;43.582;1.456;2023-04-24T08:14:42;5.03;;;1.70;;
17496;SDS011;62150;43.582;1.456;2023-04-24T08:17:10;3.67;;;1.57;;
17496;SDS011;62150;43.582;1.456;2023-04-24T08:19:39;5.07;;;1.60;;
17496;SDS011;62150;43.582;1.456;2023-04-24T08:22:12;7.00;;;1.80;;
17496;SDS011;62150;43.582;1.456;2023-04-24T08:24:40;3.70;;;1.60;;
17496;SDS011;62150;43.582;1.456;2023-04-24T08:27:08;4.17;;;1.60;;
17496;SDS011;62150;43.582;1.456;2023-04-24T08:29:36;4.43;;;1.57;;
17496;SDS011;62150;43.582;1.456;2023-04-24T08:32:04;4.13;;;1.53;;
17496;SDS011;62150;43.582;1.456;2023-04-24T08:34:31;7.23;;;1.90;;
17496;SDS011;62150;43.582;1.456;2023-04-24T08:37:00;4.20;;;1.57;;
17496;SDS011;62150;43.582;1.456;2023-04-24T08:39:28;4.00;;;1.50;;
17496;SDS011;62150;43.582;1.456;2023-04-24T08:42:05;4.60;;;1.70;;
17496;SDS011;62150;43.582;1.456;2023-04-24T08:44:34;5.63;;;1.60;;
17496;SDS011;62150;43.582;1.456;2023-04-24T08:47:03;5.73;;;1.60;;
17496;SDS011;62150;43.582;1.456;2023-04-24T08:49:32;6.37;;;1.70;;
17496;SDS011;62150;43.582;1.456;2023-04-24T08:52:04;3.70;;;1.57;;
17496;SDS011;62150;43.582;1.456;2023-04-24T08:54:33;2.73;;;1.50;;
17496;SDS011;62150;43.582;1.456;2023-04-24T08:57:02;2.83;;;1.70;;
17496;SDS011;62150;43.582;1.456;2023-04-24T08:59:30;3.63;;;1.50;;
17496;SDS011;62150;43.582;1.456;2023-04-24T09:01:59;2.47;;;1.50;;
17496;SDS011;62150;43.582;1.456;2023-04-24T09:04:28;3.87;;;1.53;;
17496;SDS011;62150;43.582;1.456;2023-04-24T09:06:57;3.87;;;1.60;;
17496;SDS011;62150;43.582;1.456;2023-04-24T09:09:26;2.63;;;1.30;;
17496;SDS011;62150;43.582;1.456;2023-04-24T09:11:59;4.47;;;1.90;;
17496;SDS011;62150;43.582;1.456;2023-04-24T09:14:28;2.87;;;1.57;;
17496;SDS011;62150;43.582;1.456;2023-04-24T09:16:57;3.63;;;1.80;;
17496;SDS011;62150;43.582;1.456;2023-04-24T09:19:24;4.47;;;1.73;;
17496;SDS011;62150;43.582;1.456;2023-04-24T09:21:52;6.03;;;1.70;;
17496;SDS011;62150;43.582;1.456;2023-04-24T09:24:28;2.33;;;1.60;;
17496;SDS011;62150;43.582;1.456;2023-04-24T09:26:56;2.23;;;1.37;;
17496;SDS011;62150;43.582;1.456;2023-04-24T09:29:26;4.33;;;1.60;;
17496;SDS011;62150;43.582;1.456;2023-04-24T09:31:54;2.23;;;1.40;;
17496;SDS011;62150;43.582;1.456;2023-04-24T09:34:22;4.17;;;1.57;;
17496;SDS011;62150;43.582;1.456;2023-04-24T09:36:51;2.67;;;1.47;;
17496;SDS011;62150;43.582;1.456;2023-04-24T09:39:19;4.60;;;1.90;;
17496;SDS011;62150;43.582;1.456;2023-04-24T09:41:48;3.17;;;1.60;;
17496;SDS011;62150;43.582;1.456;2023-04-24T09:44:17;2.80;;;1.40;;
17496;SDS011;62150;43.582;1.456;2023-04-24T09:46:48;1.80;;;1.23;;
17496;SDS011;62150;43.582;1.456;2023-04-24T09:49:21;2.63;;;1.40;;
17496;SDS011;62150;43.582;1.456;2023-04-24T09:51:50;2.20;;;1.50;;
17496;SDS011;62150;43.582;1.456;2023-04-24T09:54:19;4.90;;;1.60;;
17496;SDS011;62150;43.582;1.456;2023-04-24T09:56:49;2.97;;;1.30;;
17496;SDS011;62150;43.582;1.456;2023-04-24T09:59:18;2.13;;;1.20;;
17496;SDS011;62150;43.582;1.456;2023-04-24T10:01:46;3.87;;;1.40;;
17496;SDS011;62150;43.582;1.456;2023-04-24T10:04:16;4.33;;;1.50;;
17496;SDS011;62150;43.582;1.456;2023-04-24T10:06:45;3.07;;;1.50;;
17496;SDS011;62150;43.582;1.456;2023-04-24T10:09:14;3.23;;;1.40;;
17496;SDS011;62150;43.582;1.456;2023-04-24T10:11:42;4.70;;;1.60;;
17496;SDS011;62150;43.582;1.456;2023-04-24T10:14:13;3.63;;;1.40;;
17496;SDS011;62150;43.582;1.456;2023-04-24T10:16:43;4.00;;;1.50;;
17496;SDS011;62150;43.582;1.456;2023-04-24T10:19:12;2.97;;;1.40;;
17496;SDS011;62150;43.582;1.456;2023-04-24T10:21:40;2.73;;;1.40;;
17496;SDS011;62150;43.582;1.456;2023-04-24T10:24:11;1.90;;;1.30;;
17496;SDS011;62150;43.582;1.456;2023-04-24T10:26:40;3.97;;;1.50;;
17496;SDS011;62150;43.582;1.456;2023-04-24T10:29:09;1.90;;;1.43;;
17496;SDS011;62150;43.582;1.456;2023-04-24T10:31:39;4.00;;;1.60;;
17496;SDS011;62150;43.582;1.456;2023-04-24T10:34:08;2.63;;;1.40;;
17496;SDS011;62150;43.582;1.456;2023-04-24T10:36:36;3.60;;;1.50;;
17496;SDS011;62150;43.582;1.456;2023-04-24T10:39:09;3.37;;;1.50;;
17496;SDS011;62150;43.582;1.456;2023-04-24T10:41:40;2.57;;;1.37;;
17496;SDS011;62150;43.582;1.456;2023-04-24T10:44:08;3.00;;;1.30;;
17496;SDS011;62150;43.582;1.456;2023-04-24T10:46:36;2.40;;;1.40;;
17496;SDS011;62150;43.582;1.456;2023-04-24T10:49:08;2.90;;;1.60;;
17496;SDS011;62150;43.582;1.456;2023-04-24T10:51:43;2.40;;;1.57;;
17496;SDS011;62150;43.582;1.456;2023-04-24T10:54:21;4.50;;;1.50;;
17496;SDS011;62150;43.582;1.456;2023-04-24T10:56:50;2.50;;;1.30;;
17496;SDS011;62150;43.582;1.456;2023-04-24T10:59:24;4.27;;;1.60;;
17496;SDS011;62150;43.582;1.456;2023-04-24T11:01:54;4.67;;;1.60;;
17496;SDS011;62150;43.582;1.456;2023-04-24T11:04:28;5.27;;;1.57;;
17496;SDS011;62150;43.582;1.456;2023-04-24T11:06:57;3.03;;;1.50;;
17496;SDS011;62150;43.582;1.456;2023-04-24T11:09:26;2.37;;;1.40;;
17496;SDS011;62150;43.582;1.456;2023-04-24T11:12:02;2.83;;;1.50;;
17496;SDS011;62150;43.582;1.456;2023-04-24T11:17:32;2.23;;;1.43;;
17496;SDS011;62150;43.582;1.456;2023-04-24T11:20:02;3.13;;;1.50;;
17496;SDS011;62150;43.582;1.456;2023-04-24T11:22:32;3.57;;;1.53;;
17496;SDS011;62150;43.582;1.456;2023-04-24T11:25:01;2.93;;;1.60;;
17496;SDS011;62150;43.582;1.456;2023-04-24T11:27:30;2.57;;;1.67;;
17496;SDS011;62150;43.582;1.456;2023-04-24T11:29:59;3.40;;;1.60;;
17496;SDS011;62150;43.582;1.456;2023-04-24T11:32:28;3.80;;;1.60;;
17496;SDS011;62150;43.582;1.456;2023-04-24T11:35:01;3.95;;;1.65;;
17496;SDS011;62150;43.582;1.456;2023-04-24T11:37:33;4.53;;;1.53;;
17496;SDS011;62150;43.582;1.456;2023-04-24T11:40:03;3.80;;;1.53;;
17496;SDS011;62150;43.582;1.456;2023-04-24T11:42:35;2.50;;;1.50;;
17496;SDS011;62150;43.582;1.456;2023-04-24T11:45:07;2.43;;;1.50;;
17496;SDS011;62150;43.582;1.456;2023-04-24T11:47:37;4.43;;;1.50;;
17496;SDS011;62150;43.582;1.456;2023-04-24T11:50:07;3.70;;;1.53;;
17496;SDS011;62150;43.582;1.456;2023-04-24T11:52:36;2.67;;;1.47;;
17496;SDS011;62150;43.582;1.456;2023-04-24T11:55:06;2.70;;;1.53;;
17496;SDS011;62150;43.582;1.456;2023-04-24T11:57:35;3.97;;;1.50;;
17496;SDS011;62150;43.582;1.456;2023-04-24T12:00:03;2.17;;;1.50;;
17496;SDS011;62150;43.582;1.456;2023-04-24T12:02:33;3.73;;;1.50;;
17496;SDS011;62150;43.582;1.456;2023-04-24T12:05:02;1.98;;;1.38;;
17496;SDS011;62150;43.582;1.456;2023-04-24T12:07:29;4.27;;;1.33;;
17496;SDS011;62150;43.582;1.456;2023-04-24T12:10:08;4.45;;;1.60;;
17496;SDS011;62150;43.582;1.456;2023-04-24T12:12:36;3.17;;;1.50;;
17496;SDS011;62150;43.582;1.456;2023-04-24T12:15:06;3.83;;;1.37;;
17496;SDS011;62150;43.582;1.456;2023-04-24T12:17:35;2.03;;;1.40;;
17496;SDS011;62150;43.582;1.456;2023-04-24T12:20:08;1.93;;;1.40;;
17496;SDS011;62150;43.582;1.456;2023-04-24T12:22:43;2.87;;;1.50;;
17496;SDS011;62150;43.582;1.456;2023-04-24T12:25:13;3.70;;;1.63;;
17496;SDS011;62150;43.582;1.456;2023-04-24T12:27:41;3.63;;;1.50;;
17496;SDS011;62150;43.582;1.456;2023-04-24T12:30:10;4.97;;;1.83;;
17496;SDS011;62150;43.582;1.456;2023-04-24T12:32:43;3.10;;;1.70;;
17496;SDS011;62150;43.582;1.456;2023-04-24T12:35:13;4.70;;;1.88;;
17496;SDS011;62150;43.582;1.456;2023-04-24T12:37:45;5.00;;;1.70;;
17496;SDS011;62150;43.582;1.456;2023-04-24T12:40:13;6.82;;;2.00;;
17496;SDS011;62150;43.582;1.456;2023-04-24T12:42:42;2.17;;;1.50;;
17496;SDS011;62150;43.582;1.456;2023-04-24T12:45:11;4.03;;;1.60;;
17496;SDS011;62150;43.582;1.456;2023-04-24T12:47:39;2.60;;;1.60;;
17496;SDS011;62150;43.582;1.456;2023-04-24T12:50:08;3.15;;;1.50;;
17496;SDS011;62150;43.582;1.456;2023-04-24T12:52:39;3.90;;;1.50;;
17496;SDS011;62150;43.582;1.456;2023-04-24T12:55:08;2.40;;;1.50;;
17496;SDS011;62150;43.582;1.456;2023-04-24T12:57:37;3.88;;;1.50;;
17496;SDS011;62150;43.582;1.456;2023-04-24T13:00:06;3.47;;;1.60;;
17496;SDS011;62150;43.582;1.456;2023-04-24T13:02:35;3.05;;;1.42;;
17496;SDS011;62150;43.582;1.456;2023-04-24T13:05:03;2.65;;;1.33;;
17496;SDS011;62150;43.582;1.456;2023-04-24T13:07:32;4.28;;;1.60;;
17496;SDS011;62150;43.582;1.456;2023-04-24T13:10:01;5.68;;;1.65;;
17496;SDS011;62150;43.582;1.456;2023-04-24T13:12:29;5.07;;;1.60;;
17496;SDS011;62150;43.582;1.456;2023-04-24T13:14:57;2.15;;;1.40;;
17496;SDS011;62150;43.582;1.456;2023-04-24T13:17:25;7.25;;;2.08;;
17496;SDS011;62150;43.582;1.456;2023-04-24T13:19:53;4.90;;;1.60;;
17496;SDS011;62150;43.582;1.456;2023-04-24T13:22:22;4.35;;;1.60;;
17496;SDS011;62150;43.582;1.456;2023-04-24T13:24:50;3.30;;;1.45;;
17496;SDS011;62150;43.582;1.456;2023-04-24T13:27:19;5.32;;;1.70;;
17496;SDS011;62150;43.582;1.456;2023-04-24T13:29:46;4.28;;;1.65;;
17496;SDS011;62150;43.582;1.456;2023-04-24T13:32:14;3.60;;;1.50;;
17496;SDS011;62150;43.582;1.456;2023-04-24T13:34:43;1.75;;;1.50;;
17496;SDS011;62150;43.582;1.456;2023-04-24T13:37:11;3.22;;;1.45;;
17496;SDS011;62150;43.582;1.456;2023-04-24T13:39:38;4.85;;;1.55;;
17496;SDS011;62150;43.582;1.456;2023-04-24T13:42:06;3.22;;;1.60;;
17496;SDS011;62150;43.582;1.456;2023-04-24T13:44:35;2.15;;;1.50;;
17496;SDS011;62150;43.582;1.456;2023-04-24T13:47:03;4.85;;;1.60;;
17496;SDS011;62150;43.582;1.456;2023-04-24T13:49:30;3.33;;;1.52;;
17496;SDS011;62150;43.582;1.456;2023-04-24T13:51:58;4.72;;;1.60;;
17496;SDS011;62150;43.582;1.456;2023-04-24T13:54:25;2.45;;;1.60;;
17496;SDS011;62150;43.582;1.456;2023-04-24T13:56:53;5.07;;;1.77;;
17496;SDS011;62150;43.582;1.456;2023-04-24T13:59:22;4.97;;;1.75;;
17496;SDS011;62150;43.582;1.456;2023-04-24T14:01:51;6.18;;;1.75;;
17496;SDS011;62150;43.582;1.456;2023-04-24T14:04:19;4.95;;;1.73;;
17496;SDS011;62150;43.582;1.456;2023-04-24T14:06:46;4.65;;;1.60;;
17496;SDS011;62150;43.582;1.456;2023-04-24T14:09:14;3.45;;;1.60;;
17496;SDS011;62150;43.582;1.456;2023-04-24T14:11:41;3.15;;;1.55;;
17496;SDS011;62150;43.582;1.456;2023-04-24T14:14:09;3.25;;;1.55;;
17496;SDS011;62150;43.582;1.456;2023-04-24T14:16:36;4.78;;;1.60;;
17496;SDS011;62150;43.582;1.456;2023-04-24T14:19:06;3.10;;;1.60;;
17496;SDS011;62150;43.582;1.456;2023-04-24T14:21:33;7.53;;;2.08;;
17496;SDS011;62150;43.582;1.456;2023-04-24T14:24:01;6.10;;;1.83;;
17496;SDS011;62150;43.582;1.456;2023-04-24T14:26:28;4.65;;;1.50;;
17496;SDS011;62150;43.582;1.456;2023-04-24T14:28:56;3.92;;;1.80;;
17496;SDS011;62150;43.582;1.456;2023-04-24T14:31:24;3.22;;;1.50;;
17496;SDS011;62150;43.582;1.456;2023-04-24T14:33:52;4.35;;;2.00;;
17496;SDS011;62150;43.582;1.456;2023-04-24T14:36:21;4.03;;;1.60;;
17496;SDS011;62150;43.582;1.456;2023-04-24T14:38:48;7.20;;;1.80;;
17496;SDS011;62150;43.582;1.456;2023-04-24T14:41:16;3.60;;;1.52;;
17496;SDS011;62150;43.582;1.456;2023-04-24T14:43:44;5.43;;;1.83;;
17496;SDS011;62150;43.582;1.456;2023-04-24T14:46:11;4.30;;;2.08;;
17496;SDS011;62150;43.582;1.456;2023-04-24T14:48:39;2.08;;;1.52;;
17496;SDS011;62150;43.582;1.456;2023-04-24T14:51:06;3.35;;;1.80;;
17496;SDS011;62150;43.582;1.456;2023-04-24T14:53:35;4.78;;;1.63;;
17496;SDS011;62150;43.582;1.456;2023-04-24T14:56:02;3.88;;;1.40;;
17496;SDS011;62150;43.582;1.456;2023-04-24T14:58:30;2.05;;;1.42;;
17496;SDS011;62150;43.582;1.456;2023-04-24T15:00:58;4.57;;;1.60;;
17496;SDS011;62150;43.582;1.456;2023-04-24T15:03:25;3.85;;;1.70;;
17496;SDS011;62150;43.582;1.456;2023-04-24T15:05:54;4.20;;;1.60;;
17496;SDS011;62150;43.582;1.456;2023-04-24T15:08:21;3.30;;;1.58;;
17496;SDS011;62150;43.582;1.456;2023-04-24T15:10:50;2.80;;;1.50;;
17496;SDS011;62150;43.582;1.456;2023-04-24T15:13:18;3.53;;;1.58;;
17496;SDS011;62150;43.582;1.456;2023-04-24T15:15:46;3.47;;;1.60;;
17496;SDS011;62150;43.582;1.456;2023-04-24T15:18:13;4.70;;;1.60;;
17496;SDS011;62150;43.582;1.456;2023-04-24T15:20:41;2.22;;;1.38;;
17496;SDS011;62150;43.582;1.456;2023-04-24T15:23:08;2.38;;;1.60;;
17496;SDS011;62150;43.582;1.456;2023-04-24T15:25:36;3.35;;;1.50;;
17496;SDS011;62150;43.582;1.456;2023-04-24T15:28:05;4.93;;;1.65;;
17496;SDS011;62150;43.582;1.456;2023-04-24T15:30:33;5.53;;;1.60;;
17496;SDS011;62150;43.582;1.456;2023-04-24T15:33:00;4.55;;;1.80;;
17496;SDS011;62150;43.582;1.456;2023-04-24T15:35:28;3.75;;;1.80;;
17496;SDS011;62150;43.582;1.456;2023-04-24T15:37:55;3.40;;;1.88;;
17496;SDS011;62150;43.582;1.456;2023-04-24T15:40:23;4.25;;;1.85;;
17496;SDS011;62150;43.582;1.456;2023-04-24T15:42:51;3.25;;;1.80;;
17496;SDS011;62150;43.582;1.456;2023-04-24T15:45:20;2.00;;;1.50;;
17496;SDS011;62150;43.582;1.456;2023-04-24T15:47:48;4.53;;;1.90;;
17496;SDS011;62150;43.582;1.456;2023-04-24T15:50:16;3.22;;;1.77;;
17496;SDS011;62150;43.582;1.456;2023-04-24T15:52:46;4.20;;;1.80;;
17496;SDS011;62150;43.582;1.456;2023-04-24T15:55:14;4.97;;;1.77;;
17496;SDS011;62150;43.582;1.456;2023-04-24T15:57:41;5.00;;;1.77;;
17496;SDS011;62150;43.582;1.456;2023-04-24T16:00:09;2.50;;;1.77;;
17496;SDS011;62150;43.582;1.456;2023-04-24T16:02:39;4.15;;;1.80;;
17496;SDS011;62150;43.582;1.456;2023-04-24T16:05:07;3.42;;;1.70;;
17496;SDS011;62150;43.582;1.456;2023-04-24T16:07:36;5.80;;;1.95;;
17496;SDS011;62150;43.582;1.456;2023-04-24T16:10:04;5.40;;;1.80;;
17496;SDS011;62150;43.582;1.456;2023-04-24T16:12:33;3.58;;;1.70;;
17496;SDS011;62150;43.582;1.456;2023-04-24T16:15:00;5.75;;;1.85;;
17496;SDS011;62150;43.582;1.456;2023-04-24T16:17:28;6.05;;;1.80;;
17496;SDS011;62150;43.582;1.456;2023-04-24T16:19:57;4.85;;;2.00;;
17496;SDS011;62150;43.582;1.456;2023-04-24T16:22:24;6.00;;;2.08;;
17496;SDS011;62150;43.582;1.456;2023-04-24T16:24:52;4.93;;;2.05;;
17496;SDS011;62150;43.582;1.456;2023-04-24T16:27:20;5.80;;;2.30;;
17496;SDS011;62150;43.582;1.456;2023-04-24T16:29:48;6.63;;;2.00;;
17496;SDS011;62150;43.582;1.456;2023-04-24T16:32:16;5.65;;;2.15;;
17496;SDS011;62150;43.582;1.456;2023-04-24T16:34:43;5.40;;;2.13;;
17496;SDS011;62150;43.582;1.456;2023-04-24T16:37:12;6.32;;;2.05;;
17496;SDS011;62150;43.582;1.456;2023-04-24T16:39:40;4.50;;;2.15;;
17496;SDS011;62150;43.582;1.456;2023-04-24T16:42:09;7.43;;;2.10;;
17496;SDS011;62150;43.582;1.456;2023-04-24T16:44:37;6.53;;;2.08;;
17496;SDS011;62150;43.582;1.456;2023-04-24T16:47:05;5.15;;;1.98;;
17496;SDS011;62150;43.582;1.456;2023-04-24T16:49:32;4.00;;;1.88;;
17496;SDS011;62150;43.582;1.456;2023-04-24T16:52:00;3.92;;;2.00;;
17496;SDS011;62150;43.582;1.456;2023-04-24T16:54:29;4.15;;;1.90;;
17496;SDS011;62150;43.582;1.456;2023-04-24T16:56:58;4.82;;;2.10;;
17496;SDS011;62150;43.582;1.456;2023-04-24T16:59:26;4.40;;;1.90;;
17496;SDS011;62150;43.582;1.456;2023-04-24T17:01:54;5.28;;;2.10;;
17496;SDS011;62150;43.582;1.456;2023-04-24T17:04:22;5.57;;;2.15;;
17496;SDS011;62150;43.582;1.456;2023-04-24T17:06:50;4.45;;;2.05;;
17496;SDS011;62150;43.582;1.456;2023-04-24T17:09:17;4.43;;;1.80;;
17496;SDS011;62150;43.582;1.456;2023-04-24T17:11:47;7.65;;;2.13;;
17496;SDS011;62150;43.582;1.456;2023-04-24T17:14:14;3.83;;;1.88;;
17496;SDS011;62150;43.582;1.456;2023-04-24T17:16:42;4.53;;;1.85;;
17496;SDS011;62150;43.582;1.456;2023-04-24T17:19:10;3.67;;;1.80;;
17496;SDS011;62150;43.582;1.456;2023-04-24T17:21:37;5.65;;;2.10;;
17496;SDS011;62150;43.582;1.456;2023-04-24T17:24:05;3.67;;;1.70;;
17496;SDS011;62150;43.582;1.456;2023-04-24T17:26:33;4.18;;;1.70;;
17496;SDS011;62150;43.582;1.456;2023-04-24T17:29:02;4.25;;;1.80;;
17496;SDS011;62150;43.582;1.456;2023-04-24T17:31:29;4.38;;;1.90;;
17496;SDS011;62150;43.582;1.456;2023-04-24T17:33:57;4.88;;;2.22;;
17496;SDS011;62150;43.582;1.456;2023-04-24T17:36:24;3.80;;;1.90;;
17496;SDS011;62150;43.582;1.456;2023-04-24T17:38:52;4.32;;;1.73;;
17496;SDS011;62150;43.582;1.456;2023-04-24T17:41:19;5.30;;;1.83;;
17496;SDS011;62150;43.582;1.456;2023-04-24T17:43:47;2.53;;;1.70;;
17496;SDS011;62150;43.582;1.456;2023-04-24T17:46:16;3.55;;;1.77;;
17496;SDS011;62150;43.582;1.456;2023-04-24T17:48:43;3.65;;;1.75;;
17496;SDS011;62150;43.582;1.456;2023-04-24T17:51:11;3.00;;;1.70;;
17496;SDS011;62150;43.582;1.456;2023-04-24T17:53:39;5.68;;;1.90;;
17496;SDS011;62150;43.582;1.456;2023-04-24T17:56:06;3.95;;;1.85;;
17496;SDS011;62150;43.582;1.456;2023-04-24T17:58:34;2.75;;;1.52;;
17496;SDS011;62150;43.582;1.456;2023-04-24T18:01:02;5.25;;;1.80;;
17496;SDS011;62150;43.582;1.456;2023-04-24T18:03:32;4.25;;;1.90;;
17496;SDS011;62150;43.582;1.456;2023-04-24T18:05:59;5.72;;;1.90;;
17496;SDS011;62150;43.582;1.456;2023-04-24T18:08:27;5.00;;;2.00;;
17496;SDS011;62150;43.582;1.456;2023-04-24T18:10:54;3.22;;;1.70;;
17496;SDS011;62150;43.582;1.456;2023-04-24T18:13:23;4.72;;;1.75;;
17496;SDS011;62150;43.582;1.456;2023-04-24T18:15:50;5.03;;;1.90;;
17496;SDS011;62150;43.582;1.456;2023-04-24T18:18:18;5.32;;;1.80;;
17496;SDS011;62150;43.582;1.456;2023-04-24T18:20:47;5.13;;;1.80;;
17496;SDS011;62150;43.582;1.456;2023-04-24T18:23:14;2.10;;;1.50;;
17496;SDS011;62150;43.582;1.456;2023-04-24T18:25:42;3.95;;;1.70;;
17496;SDS011;62150;43.582;1.456;2023-04-24T18:28:09;5.18;;;1.90;;
17496;SDS011;62150;43.582;1.456;2023-04-24T18:30:38;4.43;;;1.88;;
17496;SDS011;62150;43.582;1.456;2023-04-24T18:33:05;3.50;;;1.80;;
17496;SDS011;62150;43.582;1.456;2023-04-24T18:35:33;2.90;;;1.75;;
17496;SDS011;62150;43.582;1.456;2023-04-24T18:40:38;3.63;;;1.80;;
17496;SDS011;62150;43.582;1.456;2023-04-24T18:43:05;5.82;;;1.90;;
17496;SDS011;62150;43.582;1.456;2023-04-24T18:45:33;4.40;;;1.88;;
17496;SDS011;62150;43.582;1.456;2023-04-24T18:48:01;2.85;;;1.83;;
17496;SDS011;62150;43.582;1.456;2023-04-24T18:50:28;4.38;;;1.90;;
17496;SDS011;62150;43.582;1.456;2023-04-24T18:52:57;2.80;;;1.83;;
17496;SDS011;62150;43.582;1.456;2023-04-24T18:55:25;2.53;;;1.73;;
17496;SDS011;62150;43.582;1.456;2023-04-24T18:57:54;6.38;;;2.10;;
17496;SDS011;62150;43.582;1.456;2023-04-24T19:00:21;5.22;;;2.13;;
17496;SDS011;62150;43.582;1.456;2023-04-24T19:02:49;6.28;;;2.30;;
17496;SDS011;62150;43.582;1.456;2023-04-24T19:05:17;7.07;;;2.13;;
17496;SDS011;62150;43.582;1.456;2023-04-24T19:07:44;5.38;;;2.17;;
17496;SDS011;62150;43.582;1.456;2023-04-24T19:10:12;5.78;;;2.20;;
17496;SDS011;62150;43.582;1.456;2023-04-24T19:12:40;4.38;;;2.15;;
17496;SDS011;62150;43.582;1.456;2023-04-24T19:15:10;5.60;;;2.30;;
17496;SDS011;62150;43.582;1.456;2023-04-24T19:17:37;4.80;;;2.03;;
17496;SDS011;62150;43.582;1.456;2023-04-24T19:20:05;4.80;;;2.05;;
17496;SDS011;62150;43.582;1.456;2023-04-24T19:22:33;4.60;;;2.10;;
17496;SDS011;62150;43.582;1.456;2023-04-24T19:25:01;5.38;;;2.17;;
17496;SDS011;62150;43.582;1.456;2023-04-24T19:27:28;4.53;;;2.10;;
17496;SDS011;62150;43.582;1.456;2023-04-24T19:29:56;5.40;;;2.15;;
17496;SDS011;62150;43.582;1.456;2023-04-24T19:32:25;3.47;;;2.00;;
17496;SDS011;62150;43.582;1.456;2023-04-24T19:34:52;4.38;;;2.00;;
17496;SDS011;62150;43.582;1.456;2023-04-24T19:37:20;6.40;;;2.30;;
17496;SDS011;62150;43.582;1.456;2023-04-24T19:39:47;5.30;;;2.13;;
17496;SDS011;62150;43.582;1.456;2023-04-24T19:42:15;4.60;;;1.98;;
17496;SDS011;62150;43.582;1.456;2023-04-24T19:44:42;5.20;;;2.30;;
17496;SDS011;62150;43.582;1.456;2023-04-24T19:47:10;6.53;;;2.45;;
17496;SDS011;62150;43.582;1.456;2023-04-24T19:49:39;4.80;;;2.05;;
17496;SDS011;62150;43.582;1.456;2023-04-24T19:52:07;4.47;;;1.90;;
17496;SDS011;62150;43.582;1.456;2023-04-24T19:54:34;3.50;;;1.90;;
17496;SDS011;62150;43.582;1.456;2023-04-24T19:57:02;7.15;;;1.90;;
17496;SDS011;62150;43.582;1.456;2023-04-24T19:59:29;4.32;;;1.90;;
17496;SDS011;62150;43.582;1.456;2023-04-24T20:01:57;3.33;;;1.80;;
17496;SDS011;62150;43.582;1.456;2023-04-24T20:04:24;2.85;;;2.00;;
17496;SDS011;62150;43.582;1.456;2023-04-24T20:06:53;5.32;;;2.10;;
17496;SDS011;62150;43.582;1.456;2023-04-24T20:09:21;3.97;;;2.10;;
17496;SDS011;62150;43.582;1.456;2023-04-24T20:11:49;5.80;;;2.00;;
17496;SDS011;62150;43.582;1.456;2023-04-24T20:14:17;6.35;;;2.10;;
17496;SDS011;62150;43.582;1.456;2023-04-24T20:16:45;4.07;;;1.98;;
17496;SDS011;62150;43.582;1.456;2023-04-24T20:19:13;6.32;;;2.08;;
17496;SDS011;62150;43.582;1.456;2023-04-24T20:21:41;5.03;;;2.20;;
17496;SDS011;62150;43.582;1.456;2023-04-24T20:24:09;4.53;;;1.90;;
17496;SDS011;62150;43.582;1.456;2023-04-24T20:26:37;3.03;;;1.70;;